Terminal Aerodrome Forecast
Issued by NWS

Home | Current Version | Previous Version | Text Only | Print | Product List | Glossary On
Versions: 1 2 3 4 5 6 7 8 9 10 11 12 13 14 15 16 17 18 19 20 21 22 23 24 25 26 27 28 29 30 31 32 33 34 35
084
FTUS43 KPAH 261726
TAFOWB
TAF
KOWB 261726Z 2618/2718 04010KT 3SM TSRA BR OVC022CB
     FM262030 14008KT P6SM BKN150
     FM271500 20010G17KT P6SM BKN150=

USA.gov is the U.S. government's official web portal to all federal, state and local government web resources and services.